sensor_id;sensor_type;location;lat;lon;timestamp;temperature;humidity
947;DHT22;460;48.734;9.152;2023-02-04T00:02:22;6.70;99.90
947;DHT22;460;48.734;9.152;2023-02-04T00:04:49;6.70;99.90
947;DHT22;460;48.734;9.152;2023-02-04T00:07:16;6.70;99.90
947;DHT22;460;48.734;9.152;2023-02-04T00:09:43;6.60;99.90
947;DHT22;460;48.734;9.152;2023-02-04T00:12:12;6.60;99.90
947;DHT22;460;48.734;9.152;2023-02-04T00:14:38;6.60;99.90
947;DHT22;460;48.734;9.152;2023-02-04T00:17:05;6.70;99.90
947;DHT22;460;48.734;9.152;2023-02-04T00:19:36;6.60;99.90
947;DHT22;460;48.734;9.152;2023-02-04T00:22:03;6.60;99.90
947;DHT22;460;48.734;9.152;2023-02-04T00:24:31;6.70;99.90
947;DHT22;460;48.734;9.152;2023-02-04T00:26:58;6.60;99.90
947;DHT22;460;48.734;9.152;2023-02-04T00:29:25;7.30;99.90
947;DHT22;460;48.734;9.152;2023-02-04T00:31:52;6.70;99.90
947;DHT22;460;48.734;9.152;2023-02-04T00:34:18;6.70;99.90
947;DHT22;460;48.734;9.152;2023-02-04T00:36:46;6.70;99.90
947;DHT22;460;48.734;9.152;2023-02-04T00:39:14;6.70;99.90
947;DHT22;460;48.734;9.152;2023-02-04T00:41:40;6.70;99.90
947;DHT22;460;48.734;9.152;2023-02-04T00:44:07;6.70;99.90
947;DHT22;460;48.734;9.152;2023-02-04T00:46:34;6.70;99.90
947;DHT22;460;48.734;9.152;2023-02-04T00:49:00;6.70;99.90
947;DHT22;460;48.734;9.152;2023-02-04T00:51:27;6.60;99.90
947;DHT22;460;48.734;9.152;2023-02-04T00:53:55;6.70;99.90
947;DHT22;460;48.734;9.152;2023-02-04T00:56:22;6.80;99.90
947;DHT22;460;48.734;9.152;2023-02-04T00:58:49;6.40;99.90
947;DHT22;460;48.734;9.152;2023-02-04T01:01:16;6.70;99.90
947;DHT22;460;48.734;9.152;2023-02-04T01:03:42;6.90;99.90
947;DHT22;460;48.734;9.152;2023-02-04T01:06:10;6.70;99.90
947;DHT22;460;48.734;9.152;2023-02-04T01:08:38;6.70;99.90
947;DHT22;460;48.734;9.152;2023-02-04T01:11:07;6.80;99.90
947;DHT22;460;48.734;9.152;2023-02-04T01:13:33;7.00;99.90
947;DHT22;460;48.734;9.152;2023-02-04T01:16:00;6.50;99.90
947;DHT22;460;48.734;9.152;2023-02-04T01:18:27;6.70;99.90
947;DHT22;460;48.734;9.152;2023-02-04T01:20:54;6.50;99.90
947;DHT22;460;48.734;9.152;2023-02-04T01:23:21;6.70;99.90
947;DHT22;460;48.734;9.152;2023-02-04T01:25:47;6.60;99.90
947;DHT22;460;48.734;9.152;2023-02-04T01:28:15;6.70;99.90
947;DHT22;460;48.734;9.152;2023-02-04T01:30:42;6.70;99.90
947;DHT22;460;48.734;9.152;2023-02-04T01:33:09;6.60;99.90
947;DHT22;460;48.734;9.152;2023-02-04T01:35:36;6.70;99.90
947;DHT22;460;48.734;9.152;2023-02-04T01:38:03;6.60;99.90
947;DHT22;460;48.734;9.152;2023-02-04T01:40:31;7.10;99.90
947;DHT22;460;48.734;9.152;2023-02-04T01:42:59;6.60;99.90
947;DHT22;460;48.734;9.152;2023-02-04T01:45:27;6.60;99.90
947;DHT22;460;48.734;9.152;2023-02-04T01:47:55;6.30;99.90
947;DHT22;460;48.734;9.152;2023-02-04T01:50:22;6.40;99.90
947;DHT22;460;48.734;9.152;2023-02-04T01:52:49;6.50;99.90
947;DHT22;460;48.734;9.152;2023-02-04T01:55:18;6.30;99.90
947;DHT22;460;48.734;9.152;2023-02-04T01:57:45;6.10;99.90
947;DHT22;460;48.734;9.152;2023-02-04T02:00:16;6.20;99.90
947;DHT22;460;48.734;9.152;2023-02-04T02:02:46;6.20;99.90
947;DHT22;460;48.734;9.152;2023-02-04T02:05:16;6.20;99.90
947;DHT22;460;48.734;9.152;2023-02-04T02:07:45;6.10;99.90
947;DHT22;460;48.734;9.152;2023-02-04T02:10:13;6.10;99.90
947;DHT22;460;48.734;9.152;2023-02-04T02:12:41;6.00;99.90
947;DHT22;460;48.734;9.152;2023-02-04T02:15:09;5.90;99.90
947;DHT22;460;48.734;9.152;2023-02-04T02:17:37;5.90;99.90
947;DHT22;460;48.734;9.152;2023-02-04T02:20:07;5.90;99.90
947;DHT22;460;48.734;9.152;2023-02-04T02:22:43;5.80;99.90
947;DHT22;460;48.734;9.152;2023-02-04T02:25:15;5.80;99.90
947;DHT22;460;48.734;9.152;2023-02-04T02:27:44;5.80;99.90
947;DHT22;460;48.734;9.152;2023-02-04T02:30:12;5.80;99.90
947;DHT22;460;48.734;9.152;2023-02-04T02:32:42;6.40;99.90
947;DHT22;460;48.734;9.152;2023-02-04T02:35:10;5.80;99.90
947;DHT22;460;48.734;9.152;2023-02-04T02:37:38;5.70;99.90
947;DHT22;460;48.734;9.152;2023-02-04T02:40:06;5.70;99.90
947;DHT22;460;48.734;9.152;2023-02-04T02:42:36;5.70;99.90
947;DHT22;460;48.734;9.152;2023-02-04T02:45:07;5.70;99.90
947;DHT22;460;48.734;9.152;2023-02-04T02:47:38;5.70;99.90
947;DHT22;460;48.734;9.152;2023-02-04T02:50:06;5.60;99.90
947;DHT22;460;48.734;9.152;2023-02-04T02:52:34;5.60;99.90
947;DHT22;460;48.734;9.152;2023-02-04T02:55:01;5.60;99.90
947;DHT22;460;48.734;9.152;2023-02-04T02:57:29;5.60;99.90
947;DHT22;460;48.734;9.152;2023-02-04T02:59:58;5.60;99.90
947;DHT22;460;48.734;9.152;2023-02-04T03:02:25;5.50;99.90
947;DHT22;460;48.734;9.152;2023-02-04T03:04:55;5.50;99.90
947;DHT22;460;48.734;9.152;2023-02-04T03:07:25;5.50;99.90
947;DHT22;460;48.734;9.152;2023-02-04T03:09:52;5.30;99.90
947;DHT22;460;48.734;9.152;2023-02-04T03:12:19;5.40;99.90
947;DHT22;460;48.734;9.152;2023-02-04T03:14:46;5.50;99.90
947;DHT22;460;48.734;9.152;2023-02-04T03:17:14;5.60;99.90
947;DHT22;460;48.734;9.152;2023-02-04T03:19:43;5.70;99.90
947;DHT22;460;48.734;9.152;2023-02-04T03:22:11;5.50;99.90
947;DHT22;460;48.734;9.152;2023-02-04T03:24:38;5.60;99.90
947;DHT22;460;48.734;9.152;2023-02-04T03:27:06;5.50;99.90
947;DHT22;460;48.734;9.152;2023-02-04T03:29:41;5.30;99.90
947;DHT22;460;48.734;9.152;2023-02-04T03:32:09;5.50;99.90
947;DHT22;460;48.734;9.152;2023-02-04T03:34:38;5.50;99.90
947;DHT22;460;48.734;9.152;2023-02-04T03:37:06;5.60;99.90
947;DHT22;460;48.734;9.152;2023-02-04T03:39:32;5.50;99.90
947;DHT22;460;48.734;9.152;2023-02-04T03:42:00;5.50;99.90
947;DHT22;460;48.734;9.152;2023-02-04T03:44:27;5.50;99.90
947;DHT22;460;48.734;9.152;2023-02-04T03:46:55;5.50;99.90
947;DHT22;460;48.734;9.152;2023-02-04T03:49:25;5.50;99.90
947;DHT22;460;48.734;9.152;2023-02-04T03:51:55;5.50;99.90
947;DHT22;460;48.734;9.152;2023-02-04T03:54:22;5.70;99.90
947;DHT22;460;48.734;9.152;2023-02-04T03:56:49;5.50;99.90
947;DHT22;460;48.734;9.152;2023-02-04T03:59:17;5.50;99.90
947;DHT22;460;48.734;9.152;2023-02-04T04:01:45;5.40;99.90
947;DHT22;460;48.734;9.152;2023-02-04T04:04:12;5.40;99.90
947;DHT22;460;48.734;9.152;2023-02-04T04:06:40;5.50;99.90
947;DHT22;460;48.734;9.152;2023-02-04T04:09:08;5.50;99.90
947;DHT22;460;48.734;9.152;2023-02-04T04:11:35;5.50;99.90
947;DHT22;460;48.734;9.152;2023-02-04T04:14:02;5.40;99.90
947;DHT22;460;48.734;9.152;2023-02-04T04:16:29;5.40;99.90
947;DHT22;460;48.734;9.152;2023-02-04T04:18:55;5.40;99.90
947;DHT22;460;48.734;9.152;2023-02-04T04:21:22;5.50;99.90
947;DHT22;460;48.734;9.152;2023-02-04T04:23:49;5.50;99.90
947;DHT22;460;48.734;9.152;2023-02-04T04:26:17;5.50;99.90
947;DHT22;460;48.734;9.152;2023-02-04T04:28:44;5.50;99.90
947;DHT22;460;48.734;9.152;2023-02-04T04:31:11;5.50;99.90
947;DHT22;460;48.734;9.152;2023-02-04T04:33:38;5.40;99.90
947;DHT22;460;48.734;9.152;2023-02-04T04:36:06;5.50;99.90
947;DHT22;460;48.734;9.152;2023-02-04T04:41:00;5.50;99.90
947;DHT22;460;48.734;9.152;2023-02-04T04:43:28;5.50;99.90
947;DHT22;460;48.734;9.152;2023-02-04T04:48:22;5.50;99.90
947;DHT22;460;48.734;9.152;2023-02-04T04:50:50;5.50;99.90
947;DHT22;460;48.734;9.152;2023-02-04T04:53:16;5.40;99.90
947;DHT22;460;48.734;9.152;2023-02-04T04:55:43;5.40;99.90
947;DHT22;460;48.734;9.152;2023-02-04T04:58:10;5.40;99.90
947;DHT22;460;48.734;9.152;2023-02-04T05:00:38;5.40;99.90
947;DHT22;460;48.734;9.152;2023-02-04T05:03:05;5.50;99.90
947;DHT22;460;48.734;9.152;2023-02-04T05:05:32;5.40;99.90
947;DHT22;460;48.734;9.152;2023-02-04T05:08:04;5.40;99.90
947;DHT22;460;48.734;9.152;2023-02-04T05:10:31;5.40;99.90
947;DHT22;460;48.734;9.152;2023-02-04T05:12:58;5.60;99.90
947;DHT22;460;48.734;9.152;2023-02-04T05:15:25;5.40;99.90
947;DHT22;460;48.734;9.152;2023-02-04T05:17:53;5.40;99.90
947;DHT22;460;48.734;9.152;2023-02-04T05:20:20;5.50;99.90
947;DHT22;460;48.734;9.152;2023-02-04T05:22:46;5.40;99.90
947;DHT22;460;48.734;9.152;2023-02-04T05:25:13;5.30;99.90
947;DHT22;460;48.734;9.152;2023-02-04T05:27:41;5.00;99.90
947;DHT22;460;48.734;9.152;2023-02-04T05:30:09;5.40;99.90
947;DHT22;460;48.734;9.152;2023-02-04T05:32:36;5.30;99.90
947;DHT22;460;48.734;9.152;2023-02-04T05:35:05;5.30;99.90
947;DHT22;460;48.734;9.152;2023-02-04T05:37:32;5.30;99.90
947;DHT22;460;48.734;9.152;2023-02-04T05:39:58;5.50;99.90
947;DHT22;460;48.734;9.152;2023-02-04T05:42:25;5.30;99.90
947;DHT22;460;48.734;9.152;2023-02-04T05:44:52;5.40;99.90
947;DHT22;460;48.734;9.152;2023-02-04T05:47:19;5.40;99.90
947;DHT22;460;48.734;9.152;2023-02-04T05:49:46;5.40;99.90
947;DHT22;460;48.734;9.152;2023-02-04T05:52:14;5.30;99.90
947;DHT22;460;48.734;9.152;2023-02-04T05:54:40;5.30;99.90
947;DHT22;460;48.734;9.152;2023-02-04T05:57:07;5.30;99.90
947;DHT22;460;48.734;9.152;2023-02-04T05:59:34;5.30;99.90
947;DHT22;460;48.734;9.152;2023-02-04T06:02:01;5.30;99.90
947;DHT22;460;48.734;9.152;2023-02-04T06:04:27;5.20;99.90
947;DHT22;460;48.734;9.152;2023-02-04T06:06:54;5.30;99.90
947;DHT22;460;48.734;9.152;2023-02-04T06:09:22;5.20;99.90
947;DHT22;460;48.734;9.152;2023-02-04T06:11:49;5.20;99.90
947;DHT22;460;48.734;9.152;2023-02-04T06:14:16;5.20;99.90
947;DHT22;460;48.734;9.152;2023-02-04T06:16:42;5.20;99.90
947;DHT22;460;48.734;9.152;2023-02-04T06:21:38;4.80;99.90
947;DHT22;460;48.734;9.152;2023-02-04T06:24:05;5.10;99.90
947;DHT22;460;48.734;9.152;2023-02-04T06:26:33;5.00;99.90
947;DHT22;460;48.734;9.152;2023-02-04T06:29:00;5.20;99.90
947;DHT22;460;48.734;9.152;2023-02-04T06:31:27;5.00;99.90
947;DHT22;460;48.734;9.152;2023-02-04T06:33:54;5.00;99.90
947;DHT22;460;48.734;9.152;2023-02-04T06:36:20;5.10;99.90
947;DHT22;460;48.734;9.152;2023-02-04T06:38:47;5.00;99.90
947;DHT22;460;48.734;9.152;2023-02-04T06:41:14;4.90;99.90
947;DHT22;460;48.734;9.152;2023-02-04T06:43:42;4.90;99.90
947;DHT22;460;48.734;9.152;2023-02-04T06:46:09;4.90;99.90
947;DHT22;460;48.734;9.152;2023-02-04T06:48:35;4.90;99.90
947;DHT22;460;48.734;9.152;2023-02-04T06:51:02;5.00;99.90
947;DHT22;460;48.734;9.152;2023-02-04T06:53:29;4.90;99.90
947;DHT22;460;48.734;9.152;2023-02-04T06:55:56;5.00;99.90
947;DHT22;460;48.734;9.152;2023-02-04T06:58:23;5.00;99.90
947;DHT22;460;48.734;9.152;2023-02-04T07:00:51;5.00;99.90
947;DHT22;460;48.734;9.152;2023-02-04T07:03:18;4.90;99.90
947;DHT22;460;48.734;9.152;2023-02-04T07:05:44;5.70;99.90
947;DHT22;460;48.734;9.152;2023-02-04T07:08:11;5.00;99.90
947;DHT22;460;48.734;9.152;2023-02-04T07:10:38;5.00;99.90
947;DHT22;460;48.734;9.152;2023-02-04T07:13:05;5.10;99.90
947;DHT22;460;48.734;9.152;2023-02-04T07:15:32;5.00;99.90
947;DHT22;460;48.734;9.152;2023-02-04T07:18:00;5.10;99.90
947;DHT22;460;48.734;9.152;2023-02-04T07:20:26;4.90;99.90
947;DHT22;460;48.734;9.152;2023-02-04T07:22:53;5.00;99.90
947;DHT22;460;48.734;9.152;2023-02-04T07:25:20;5.00;99.90
947;DHT22;460;48.734;9.152;2023-02-04T07:27:47;5.00;99.90
947;DHT22;460;48.734;9.152;2023-02-04T07:30:14;5.00;99.90
947;DHT22;460;48.734;9.152;2023-02-04T07:32:41;4.90;99.90
947;DHT22;460;48.734;9.152;2023-02-04T07:35:10;5.00;99.90
947;DHT22;460;48.734;9.152;2023-02-04T07:37:37;5.00;99.90
947;DHT22;460;48.734;9.152;2023-02-04T07:40:05;5.00;99.90
947;DHT22;460;48.734;9.152;2023-02-04T07:42:31;5.10;99.90
947;DHT22;460;48.734;9.152;2023-02-04T07:44:58;5.00;99.90
947;DHT22;460;48.734;9.152;2023-02-04T07:47:25;5.10;99.90
947;DHT22;460;48.734;9.152;2023-02-04T07:49:52;5.10;99.90
947;DHT22;460;48.734;9.152;2023-02-04T07:52:22;5.10;99.90
947;DHT22;460;48.734;9.152;2023-02-04T07:54:49;5.00;99.90
947;DHT22;460;48.734;9.152;2023-02-04T07:57:17;5.00;99.90
947;DHT22;460;48.734;9.152;2023-02-04T07:59:43;5.00;99.90
947;DHT22;460;48.734;9.152;2023-02-04T08:02:10;5.00;99.90
947;DHT22;460;48.734;9.152;2023-02-04T08:04:37;5.00;99.90
947;DHT22;460;48.734;9.152;2023-02-04T08:07:04;5.10;99.90
947;DHT22;460;48.734;9.152;2023-02-04T08:09:32;5.10;99.90
947;DHT22;460;48.734;9.152;2023-02-04T08:11:59;5.10;99.90
947;DHT22;460;48.734;9.152;2023-02-04T08:14:26;5.10;99.90
947;DHT22;460;48.734;9.152;2023-02-04T08:16:53;5.10;99.90
947;DHT22;460;48.734;9.152;2023-02-04T08:19:20;5.10;99.90
947;DHT22;460;48.734;9.152;2023-02-04T08:21:47;5.20;99.90
947;DHT22;460;48.734;9.152;2023-02-04T08:24:14;5.20;99.90
947;DHT22;460;48.734;9.152;2023-02-04T08:26:43;5.10;99.90
947;DHT22;460;48.734;9.152;2023-02-04T08:29:10;5.30;99.90
947;DHT22;460;48.734;9.152;2023-02-04T08:31:37;5.20;99.90
947;DHT22;460;48.734;9.152;2023-02-04T08:34:05;5.20;99.90
947;DHT22;460;48.734;9.152;2023-02-04T08:36:32;5.30;99.90
947;DHT22;460;48.734;9.152;2023-02-04T08:38:59;5.30;99.90
947;DHT22;460;48.734;9.152;2023-02-04T08:41:26;5.30;99.90
947;DHT22;460;48.734;9.152;2023-02-04T08:43:54;5.00;99.90
947;DHT22;460;48.734;9.152;2023-02-04T08:46:20;5.30;99.90
947;DHT22;460;48.734;9.152;2023-02-04T08:48:47;5.20;99.90
947;DHT22;460;48.734;9.152;2023-02-04T08:51:14;5.30;99.90
947;DHT22;460;48.734;9.152;2023-02-04T08:53:41;5.30;99.90
947;DHT22;460;48.734;9.152;2023-02-04T08:56:08;5.20;99.90
947;DHT22;460;48.734;9.152;2023-02-04T08:58:35;5.30;99.90
947;DHT22;460;48.734;9.152;2023-02-04T09:01:03;5.30;99.90
947;DHT22;460;48.734;9.152;2023-02-04T09:03:31;5.30;99.90
947;DHT22;460;48.734;9.152;2023-02-04T09:05:58;5.00;99.90
947;DHT22;460;48.734;9.152;2023-02-04T09:08:25;5.30;99.90
947;DHT22;460;48.734;9.152;2023-02-04T09:10:51;5.40;99.90
947;DHT22;460;48.734;9.152;2023-02-04T09:13:18;5.50;99.90
947;DHT22;460;48.734;9.152;2023-02-04T09:15:45;5.40;99.90
947;DHT22;460;48.734;9.152;2023-02-04T09:18:13;5.60;99.90
947;DHT22;460;48.734;9.152;2023-02-04T09:20:41;5.40;99.90
947;DHT22;460;48.734;9.152;2023-02-04T09:25:37;5.60;99.90
947;DHT22;460;48.734;9.152;2023-02-04T09:28:04;5.50;99.90
947;DHT22;460;48.734;9.152;2023-02-04T09:30:31;5.60;99.90
947;DHT22;460;48.734;9.152;2023-02-04T09:32:58;6.10;99.90
947;DHT22;460;48.734;9.152;2023-02-04T09:35:26;5.70;99.90
947;DHT22;460;48.734;9.152;2023-02-04T09:37:53;5.90;99.90
947;DHT22;460;48.734;9.152;2023-02-04T09:40:19;5.80;99.90
947;DHT22;460;48.734;9.152;2023-02-04T09:42:47;6.10;99.90
947;DHT22;460;48.734;9.152;2023-02-04T09:45:17;6.20;99.90
947;DHT22;460;48.734;9.152;2023-02-04T09:47:44;6.50;99.90
947;DHT22;460;48.734;9.152;2023-02-04T09:50:13;6.30;99.90
947;DHT22;460;48.734;9.152;2023-02-04T09:52:42;6.30;99.90
947;DHT22;460;48.734;9.152;2023-02-04T09:55:12;6.10;99.90
947;DHT22;460;48.734;9.152;2023-02-04T09:57:39;6.10;99.90
947;DHT22;460;48.734;9.152;2023-02-04T10:00:14;6.00;99.90
947;DHT22;460;48.734;9.152;2023-02-04T10:02:41;6.10;99.90
947;DHT22;460;48.734;9.152;2023-02-04T10:05:12;6.30;99.90
947;DHT22;460;48.734;9.152;2023-02-04T10:07:39;6.30;99.90
947;DHT22;460;48.734;9.152;2023-02-04T10:10:13;6.30;99.90
947;DHT22;460;48.734;9.152;2023-02-04T10:12:41;6.20;99.90
947;DHT22;460;48.734;9.152;2023-02-04T10:15:11;6.10;99.90
947;DHT22;460;48.734;9.152;2023-02-04T10:17:38;6.30;99.90
947;DHT22;460;48.734;9.152;2023-02-04T10:20:10;6.40;99.90
947;DHT22;460;48.734;9.152;2023-02-04T10:22:37;6.70;99.90
947;DHT22;460;48.734;9.152;2023-02-04T10:25:11;6.80;99.90
947;DHT22;460;48.734;9.152;2023-02-04T10:27:47;7.00;99.90
947;DHT22;460;48.734;9.152;2023-02-04T10:30:19;7.10;99.90
947;DHT22;460;48.734;9.152;2023-02-04T10:32:46;7.20;99.90
947;DHT22;460;48.734;9.152;2023-02-04T10:35:15;7.30;99.90
947;DHT22;460;48.734;9.152;2023-02-04T10:37:43;7.50;99.90
947;DHT22;460;48.734;9.152;2023-02-04T10:40:28;7.00;99.90
947;DHT22;460;48.734;9.152;2023-02-04T10:42:55;6.80;99.90
947;DHT22;460;48.734;9.152;2023-02-04T10:45:24;6.80;99.90
947;DHT22;460;48.734;9.152;2023-02-04T10:47:52;6.50;99.90
947;DHT22;460;48.734;9.152;2023-02-04T10:50:21;6.60;99.90
947;DHT22;460;48.734;9.152;2023-02-04T10:52:52;6.50;99.90
947;DHT22;460;48.734;9.152;2023-02-04T10:55:41;6.50;99.90
947;DHT22;460;48.734;9.152;2023-02-04T10:58:11;6.60;99.90
947;DHT22;460;48.734;9.152;2023-02-04T11:00:39;6.60;99.90
947;DHT22;460;48.734;9.152;2023-02-04T11:03:10;6.70;99.90
947;DHT22;460;48.734;9.152;2023-02-04T11:05:37;6.70;99.90
947;DHT22;460;48.734;9.152;2023-02-04T11:08:19;6.70;99.90
947;DHT22;460;48.734;9.152;2023-02-04T11:10:49;6.50;99.90
947;DHT22;460;48.734;9.152;2023-02-04T11:13:22;6.50;99.90
947;DHT22;460;48.734;9.152;2023-02-04T11:15:54;6.60;99.90
947;DHT22;460;48.734;9.152;2023-02-04T11:18:43;6.70;99.90
947;DHT22;460;48.734;9.152;2023-02-04T11:21:14;7.10;99.90
947;DHT22;460;48.734;9.152;2023-02-04T11:23:47;7.20;99.90
947;DHT22;460;48.734;9.152;2023-02-04T11:26:17;7.20;99.90
947;DHT22;460;48.734;9.152;2023-02-04T11:28:55;7.30;99.70
947;DHT22;460;48.734;9.152;2023-02-04T11:31:55;7.20;99.20
947;DHT22;460;48.734;9.152;2023-02-04T11:34:31;7.10;99.90
947;DHT22;460;48.734;9.152;2023-02-04T11:37:33;7.10;99.90
947;DHT22;460;48.734;9.152;2023-02-04T11:40:01;6.70;99.90
947;DHT22;460;48.734;9.152;2023-02-04T11:42:40;6.60;98.20
947;DHT22;460;48.734;9.152;2023-02-04T11:45:13;6.90;99.90
947;DHT22;460;48.734;9.152;2023-02-04T11:47:41;6.50;99.90
947;DHT22;460;48.734;9.152;2023-02-04T11:50:15;6.30;99.90
947;DHT22;460;48.734;9.152;2023-02-04T11:52:42;6.30;99.90
947;DHT22;460;48.734;9.152;2023-02-04T11:55:10;6.30;99.90
947;DHT22;460;48.734;9.152;2023-02-04T11:57:40;5.90;99.90
947;DHT22;460;48.734;9.152;2023-02-04T12:00:13;6.50;99.90
947;DHT22;460;48.734;9.152;2023-02-04T12:02:43;5.80;99.90
947;DHT22;460;48.734;9.152;2023-02-04T12:05:12;6.00;99.90
947;DHT22;460;48.734;9.152;2023-02-04T12:07:39;6.00;99.80
947;DHT22;460;48.734;9.152;2023-02-04T12:10:23;6.10;99.90
947;DHT22;460;48.734;9.152;2023-02-04T12:12:53;6.10;99.90
947;DHT22;460;48.734;9.152;2023-02-04T12:15:24;6.20;99.90
947;DHT22;460;48.734;9.152;2023-02-04T12:18:02;6.20;99.80
947;DHT22;460;48.734;9.152;2023-02-04T12:20:29;6.30;99.90
947;DHT22;460;48.734;9.152;2023-02-04T12:22:56;6.40;99.80
947;DHT22;460;48.734;9.152;2023-02-04T12:25:23;6.40;99.90
947;DHT22;460;48.734;9.152;2023-02-04T12:27:52;6.50;99.50
947;DHT22;460;48.734;9.152;2023-02-04T12:30:20;6.90;99.90
947;DHT22;460;48.734;9.152;2023-02-04T12:32:47;6.80;99.80
947;DHT22;460;48.734;9.152;2023-02-04T12:35:14;7.00;99.90
947;DHT22;460;48.734;9.152;2023-02-04T12:37:42;7.10;99.30
947;DHT22;460;48.734;9.152;2023-02-04T12:40:13;7.00;99.90
947;DHT22;460;48.734;9.152;2023-02-04T12:42:40;7.10;98.40
947;DHT22;460;48.734;9.152;2023-02-04T12:45:09;7.30;99.50
947;DHT22;460;48.734;9.152;2023-02-04T12:47:37;7.30;98.50
947;DHT22;460;48.734;9.152;2023-02-04T12:50:05;7.60;99.90
947;DHT22;460;48.734;9.152;2023-02-04T12:52:32;7.40;99.50
947;DHT22;460;48.734;9.152;2023-02-04T12:54:59;7.40;98.30
947;DHT22;460;48.734;9.152;2023-02-04T12:57:26;7.40;98.70
947;DHT22;460;48.734;9.152;2023-02-04T12:59:52;7.20;97.00
947;DHT22;460;48.734;9.152;2023-02-04T13:02:23;7.10;97.30
947;DHT22;460;48.734;9.152;2023-02-04T13:04:50;7.10;98.30
947;DHT22;460;48.734;9.152;2023-02-04T13:07:17;7.10;98.80
947;DHT22;460;48.734;9.152;2023-02-04T13:09:44;7.10;98.90
947;DHT22;460;48.734;9.152;2023-02-04T13:12:11;7.20;99.20
947;DHT22;460;48.734;9.152;2023-02-04T13:14:38;7.30;98.70
947;DHT22;460;48.734;9.152;2023-02-04T13:17:05;7.40;99.20
947;DHT22;460;48.734;9.152;2023-02-04T13:19:33;7.40;97.80
947;DHT22;460;48.734;9.152;2023-02-04T13:22:00;7.40;98.60
947;DHT22;460;48.734;9.152;2023-02-04T13:24:27;7.20;95.20
947;DHT22;460;48.734;9.152;2023-02-04T13:26:54;7.00;95.90
947;DHT22;460;48.734;9.152;2023-02-04T13:29:21;7.00;97.00
947;DHT22;460;48.734;9.152;2023-02-04T13:31:48;7.00;96.40
947;DHT22;460;48.734;9.152;2023-02-04T13:34:15;6.80;95.70
947;DHT22;460;48.734;9.152;2023-02-04T13:36:43;6.80;97.40
947;DHT22;460;48.734;9.152;2023-02-04T13:39:10;6.90;98.30
947;DHT22;460;48.734;9.152;2023-02-04T13:41:37;7.10;98.10
947;DHT22;460;48.734;9.152;2023-02-04T13:44:05;7.10;98.00
947;DHT22;460;48.734;9.152;2023-02-04T13:46:32;7.10;98.00
947;DHT22;460;48.734;9.152;2023-02-04T13:48:58;7.00;98.30
947;DHT22;460;48.734;9.152;2023-02-04T13:51:25;7.00;99.10
947;DHT22;460;48.734;9.152;2023-02-04T13:53:53;7.00;98.40
947;DHT22;460;48.734;9.152;2023-02-04T13:56:20;7.10;99.00
947;DHT22;460;48.734;9.152;2023-02-04T13:58:47;7.10;98.70
947;DHT22;460;48.734;9.152;2023-02-04T14:01:14;7.10;99.00
947;DHT22;460;48.734;9.152;2023-02-04T14:03:41;7.20;98.90
947;DHT22;460;48.734;9.152;2023-02-04T14:06:08;6.90;99.90
947;DHT22;460;48.734;9.152;2023-02-04T14:08:35;7.10;99.60
947;DHT22;460;48.734;9.152;2023-02-04T14:11:04;7.10;98.50
947;DHT22;460;48.734;9.152;2023-02-04T14:13:32;7.20;99.40
947;DHT22;460;48.734;9.152;2023-02-04T14:15:58;7.30;99.10
947;DHT22;460;48.734;9.152;2023-02-04T14:18:25;7.20;97.30
947;DHT22;460;48.734;9.152;2023-02-04T14:20:52;7.20;98.10
947;DHT22;460;48.734;9.152;2023-02-04T14:23:19;7.30;97.70
947;DHT22;460;48.734;9.152;2023-02-04T14:25:45;7.40;97.40
947;DHT22;460;48.734;9.152;2023-02-04T14:28:13;7.30;96.60
947;DHT22;460;48.734;9.152;2023-02-04T14:30:40;7.20;97.20
947;DHT22;460;48.734;9.152;2023-02-04T14:33:07;7.20;97.90
947;DHT22;460;48.734;9.152;2023-02-04T14:35:34;7.30;97.00
947;DHT22;460;48.734;9.152;2023-02-04T14:38:02;7.00;96.90
947;DHT22;460;48.734;9.152;2023-02-04T14:40:29;7.00;96.80
947;DHT22;460;48.734;9.152;2023-02-04T14:42:55;6.70;97.20
947;DHT22;460;48.734;9.152;2023-02-04T14:45:23;6.80;96.70
947;DHT22;460;48.734;9.152;2023-02-04T14:47:50;6.70;96.80
947;DHT22;460;48.734;9.152;2023-02-04T14:50:21;6.70;97.60
947;DHT22;460;48.734;9.152;2023-02-04T14:52:51;6.60;97.20
947;DHT22;460;48.734;9.152;2023-02-04T14:55:18;6.40;97.00
947;DHT22;460;48.734;9.152;2023-02-04T14:57:45;6.40;98.10
947;DHT22;460;48.734;9.152;2023-02-04T15:00:13;6.40;98.50
947;DHT22;460;48.734;9.152;2023-02-04T15:02:41;6.30;98.90
947;DHT22;460;48.734;9.152;2023-02-04T15:05:09;6.20;98.70
947;DHT22;460;48.734;9.152;2023-02-04T15:07:36;6.20;99.20
947;DHT22;460;48.734;9.152;2023-02-04T15:10:04;6.20;99.00
947;DHT22;460;48.734;9.152;2023-02-04T15:12:31;6.20;98.90
947;DHT22;460;48.734;9.152;2023-02-04T15:14:58;6.20;99.00
947;DHT22;460;48.734;9.152;2023-02-04T15:17:24;6.30;99.10
947;DHT22;460;48.734;9.152;2023-02-04T15:19:52;6.30;98.80
947;DHT22;460;48.734;9.152;2023-02-04T15:22:19;6.40;98.20
947;DHT22;460;48.734;9.152;2023-02-04T15:24:46;6.40;98.50
947;DHT22;460;48.734;9.152;2023-02-04T15:27:13;6.30;98.90
947;DHT22;460;48.734;9.152;2023-02-04T15:29:40;6.20;98.30
947;DHT22;460;48.734;9.152;2023-02-04T15:32:06;6.20;98.70
947;DHT22;460;48.734;9.152;2023-02-04T15:34:34;6.20;99.40
947;DHT22;460;48.734;9.152;2023-02-04T15:37:02;6.20;99.40
947;DHT22;460;48.734;9.152;2023-02-04T15:39:29;6.10;99.60
947;DHT22;460;48.734;9.152;2023-02-04T15:41:56;6.00;99.40
947;DHT22;460;48.734;9.152;2023-02-04T15:44:23;6.10;99.60
947;DHT22;460;48.734;9.152;2023-02-04T15:46:51;6.10;99.20
947;DHT22;460;48.734;9.152;2023-02-04T15:49:18;6.00;98.30
947;DHT22;460;48.734;9.152;2023-02-04T15:51:45;5.90;98.00
947;DHT22;460;48.734;9.152;2023-02-04T15:54:13;5.90;98.00
947;DHT22;460;48.734;9.152;2023-02-04T15:56:40;6.00;98.40
947;DHT22;460;48.734;9.152;2023-02-04T15:59:07;6.00;98.10
947;DHT22;460;48.734;9.152;2023-02-04T16:01:34;6.00;98.40
947;DHT22;460;48.734;9.152;2023-02-04T16:04:00;5.90;98.60
947;DHT22;460;48.734;9.152;2023-02-04T16:06:27;5.90;99.30
947;DHT22;460;48.734;9.152;2023-02-04T16:08:54;5.90;98.80
947;DHT22;460;48.734;9.152;2023-02-04T16:11:22;5.80;99.10
947;DHT22;460;48.734;9.152;2023-02-04T16:13:49;5.80;99.60
947;DHT22;460;48.734;9.152;2023-02-04T16:16:16;5.80;99.70
947;DHT22;460;48.734;9.152;2023-02-04T16:18:42;5.70;99.30
947;DHT22;460;48.734;9.152;2023-02-04T16:21:09;5.80;99.40
947;DHT22;460;48.734;9.152;2023-02-04T16:23:36;5.80;99.70
947;DHT22;460;48.734;9.152;2023-02-04T16:26:03;5.80;99.80
947;DHT22;460;48.734;9.152;2023-02-04T16:28:31;5.70;99.60
947;DHT22;460;48.734;9.152;2023-02-04T16:30:58;5.70;99.90
947;DHT22;460;48.734;9.152;2023-02-04T16:33:24;5.60;99.70
947;DHT22;460;48.734;9.152;2023-02-04T16:35:57;5.60;99.90
947;DHT22;460;48.734;9.152;2023-02-04T16:38:24;5.60;99.90
947;DHT22;460;48.734;9.152;2023-02-04T16:40:51;5.60;99.90
947;DHT22;460;48.734;9.152;2023-02-04T16:43:17;5.50;99.90
947;DHT22;460;48.734;9.152;2023-02-04T16:45:46;5.50;99.90
947;DHT22;460;48.734;9.152;2023-02-04T16:48:12;5.50;99.90
947;DHT22;460;48.734;9.152;2023-02-04T16:50:39;5.40;99.90
947;DHT22;460;48.734;9.152;2023-02-04T16:53:06;5.40;99.90
947;DHT22;460;48.734;9.152;2023-02-04T16:55:35;5.30;99.90
947;DHT22;460;48.734;9.152;2023-02-04T16:58:02;5.30;99.90
947;DHT22;460;48.734;9.152;2023-02-04T17:00:28;5.30;99.60
947;DHT22;460;48.734;9.152;2023-02-04T17:02:56;5.40;99.40
947;DHT22;460;48.734;9.152;2023-02-04T17:05:23;5.50;98.90
947;DHT22;460;48.734;9.152;2023-02-04T17:07:50;5.30;99.10